createdAt,value
2022-12-13T00:00:37.495Z,98631.16
2022-12-13T00:04:39.016Z,98627.75
2022-12-13T00:08:41.683Z,98628.50
2022-12-13T00:12:43.020Z,98632.72
2022-12-13T00:16:45.698Z,98637.72
2022-12-13T00:20:47.121Z,98627.47
2022-12-13T00:24:48.611Z,98629.91
2022-12-13T00:28:51.250Z,98612.63
2022-12-13T00:37:05.802Z,98595.47
2022-12-13T00:41:11.491Z,98590.22
2022-12-13T00:45:13.482Z,98584.94
2022-12-13T00:49:15.108Z,98587.47
2022-12-13T00:53:16.391Z,98586.63
2022-12-13T00:57:17.719Z,98590.09
2022-12-13T01:01:20.369Z,98596.22
2022-12-13T01:05:47.220Z,98592.91
2022-12-13T01:09:43.036Z,98593.78
2022-12-13T01:13:44.683Z,98601.44
2022-12-13T01:17:47.242Z,98597.25
2022-12-13T01:21:48.919Z,98592.91
2022-12-13T01:25:50.586Z,98581.91
2022-12-13T01:29:51.927Z,98591.13
2022-12-13T01:33:53.602Z,98591.88
2022-12-13T01:37:55.572Z,98592.75
2022-12-13T01:42:02.728Z,98587.75
2022-12-13T01:46:04.751Z,98592.75
2022-12-13T01:50:08.629Z,98591.03
2022-12-13T01:54:12.714Z,98571.59
2022-12-13T01:58:23.034Z,98573.22
2022-12-13T02:02:24.361Z,98567.28
2022-12-13T02:06:25.650Z,98567.19
2022-12-13T02:10:27.571Z,98567.19
2022-12-13T02:14:28.876Z,98571.41
2022-12-13T02:18:39.262Z,98559.47
2022-12-13T02:22:40.600Z,98554.50
2022-12-13T02:26:41.986Z,98552.72
2022-12-13T02:30:47.356Z,98558.59
2022-12-13T02:34:56.782Z,98556.00
2022-12-13T02:39:01.423Z,98556.81
2022-12-13T02:43:08.759Z,98551.63
2022-12-13T02:47:22.005Z,98553.31
2022-12-13T02:51:24.956Z,98549.09
2022-12-13T02:55:28.344Z,98539.00
2022-12-13T02:59:31.571Z,98538.84
2022-12-13T03:03:42.597Z,98529.50
2022-12-13T03:07:46.780Z,98527.72
2022-12-13T03:12:27.348Z,98527.63
2022-12-13T03:16:37.659Z,98519.25
2022-12-13T03:20:39.390Z,98523.38
2022-12-13T03:24:40.682Z,98527.53
2022-12-13T03:28:42.066Z,98519.88
2022-12-13T03:32:43.299Z,98523.16
2022-12-13T03:36:44.620Z,98522.19
2022-12-13T03:40:46.012Z,98528.75
2022-12-13T03:44:47.589Z,98521.00
2022-12-13T03:48:49.088Z,98513.53
2022-12-13T03:52:51.884Z,98521.88
2022-12-13T03:56:53.222Z,98515.06
2022-12-13T04:00:54.539Z,98522.72
2022-12-13T04:04:55.815Z,98518.63
2022-12-13T04:09:02.146Z,98517.88
2022-12-13T04:13:22.272Z,98521.25
2022-12-13T04:17:23.922Z,98510.25
2022-12-13T04:21:25.259Z,98511.00
2022-12-13T04:25:26.678Z,98494.84
2022-12-13T04:29:34.128Z,98493.97
2022-12-13T04:33:36.696Z,98487.13
2022-12-13T04:37:38.068Z,98491.34
2022-12-13T04:41:39.475Z,98503.19
2022-12-13T04:45:41.102Z,98498.06
2022-12-13T04:49:42.654Z,98498.88
2022-12-13T04:53:44.608Z,98501.38
2022-12-13T04:57:45.928Z,98498.03
2022-12-13T05:01:49.514Z,98501.38
2022-12-13T05:05:50.841Z,98503.03
2022-12-13T05:09:52.211Z,98502.22
2022-12-13T05:13:53.493Z,98497.09
2022-12-13T05:17:54.809Z,98489.44
2022-12-13T05:21:56.550Z,98497.91
2022-12-13T05:26:03.426Z,98502.19
2022-12-13T05:30:05.493Z,98502.22
2022-12-13T05:34:06.853Z,98493.75
2022-12-13T05:38:08.273Z,98486.09
2022-12-13T05:42:09.581Z,98474.25
2022-12-13T05:46:12.931Z,98475.09
2022-12-13T05:50:15.089Z,98477.63
2022-12-13T05:54:16.587Z,98476.78
2022-12-13T05:58:23.292Z,98473.31
2022-12-13T06:02:25.291Z,98483.47
2022-12-13T06:06:26.688Z,98476.66
2022-12-13T06:10:34.431Z,98478.34
2022-12-13T06:14:36.776Z,98476.53
2022-12-13T06:18:38.105Z,98486.69
2022-12-13T06:22:39.536Z,98488.31
2022-12-13T06:26:41.167Z,98488.31
2022-12-13T06:30:42.998Z,98493.44
2022-12-13T06:34:44.819Z,98482.44
2022-12-13T06:38:46.146Z,98483.28
2022-12-13T06:42:47.622Z,98489.22
2022-12-13T06:46:49.150Z,98496.81
2022-12-13T06:50:50.574Z,98498.50
2022-12-13T06:54:58.323Z,98498.50
2022-12-13T06:59:02.183Z,98500.13
2022-12-13T07:03:03.813Z,98493.28
2022-12-13T07:07:05.339Z,98498.34
2022-12-13T07:11:06.827Z,98503.41
2022-12-13T07:15:08.992Z,98511.16
2022-12-13T07:19:22.829Z,98520.44
2022-12-13T07:23:25.678Z,98521.25
2022-12-13T07:27:26.979Z,98524.66
2022-12-13T07:31:28.772Z,98522.13
2022-12-13T07:35:30.756Z,98523.78
2022-12-13T07:39:32.536Z,98526.31
2022-12-13T07:43:34.332Z,98533.19
2022-12-13T07:47:35.867Z,98535.75
2022-12-13T07:51:37.172Z,98529.88
2022-12-13T07:55:39.807Z,98521.66
2022-12-13T07:59:41.053Z,98522.56
2022-12-13T08:03:42.503Z,98513.34
2022-12-13T08:07:43.807Z,98515.31
2022-12-13T08:11:45.692Z,98517.28
2022-12-13T08:15:47.195Z,98523.47
2022-12-13T08:19:48.810Z,98527.19
2022-12-13T08:23:50.086Z,98531.88
2022-12-13T08:27:51.868Z,98538.28
2022-12-13T08:31:53.306Z,98534.47
2022-12-13T08:35:55.114Z,98529.16
2022-12-13T08:39:56.407Z,98538.94
2022-12-13T08:43:57.887Z,98535.81
2022-12-13T08:48:00.290Z,98530.38
2022-12-13T08:52:01.949Z,98526.56
2022-12-13T08:56:04.663Z,98529.34
2022-12-13T09:00:06.700Z,98530.06
2022-12-13T09:04:08.030Z,98531.84
2022-12-13T09:08:24.695Z,98533.56
2022-12-13T09:12:30.583Z,98518.38
2022-12-13T09:16:36.421Z,98521.00
2022-12-13T09:20:41.184Z,98521.13
2022-12-13T09:24:43.593Z,98530.53
2022-12-13T09:28:51.603Z,98521.31
2022-12-13T09:32:53.047Z,98522.34
2022-12-13T09:36:54.289Z,98512.34
2022-12-13T09:41:29.020Z,98517.69
2022-12-13T09:45:31.710Z,98514.44
2022-12-13T09:49:36.110Z,98509.47
2022-12-13T09:53:37.838Z,98517.28
2022-12-13T09:57:39.664Z,98516.56
2022-12-13T10:01:41.139Z,98516.88
2022-12-13T10:05:51.483Z,98518.75
2022-12-13T10:09:58.620Z,98507.03
2022-12-13T10:14:09.968Z,98496.22
2022-12-13T10:18:14.477Z,98503.84
2022-12-13T10:22:16.658Z,98509.78
2022-12-13T10:26:23.984Z,98528.56
2022-12-13T10:30:29.180Z,98522.72
2022-12-13T10:34:39.121Z,98514.47
2022-12-13T10:38:42.907Z,98507.97
2022-12-13T10:42:44.355Z,98498.75
2022-12-13T10:47:03.038Z,98486.84
2022-12-13T10:51:04.557Z,98491.16
2022-12-13T10:55:23.045Z,98487.78
2022-12-13T10:59:25.539Z,98476.13
2022-12-13T11:03:32.422Z,98473.72
2022-12-13T11:07:34.105Z,98473.94
2022-12-13T11:11:35.792Z,98469.09
2022-12-13T11:15:38.363Z,98449.63
2022-12-13T11:19:44.152Z,98445.50
2022-12-13T11:23:46.042Z,98451.50
2022-12-13T11:27:47.339Z,98448.91
2022-12-13T11:32:02.459Z,98450.78
2022-12-13T11:36:13.022Z,98439.56
2022-12-13T11:40:15.547Z,98434.47
2022-12-13T11:44:23.562Z,98435.25
2022-12-13T11:48:52.447Z,98431.81
2022-12-13T11:53:01.570Z,98434.38
2022-12-13T11:57:11.488Z,98424.31
2022-12-13T12:01:17.541Z,98420.25
2022-12-13T12:05:22.480Z,98419.59
2022-12-13T12:09:27.324Z,98415.63
2022-12-13T12:13:33.252Z,98413.13
2022-12-13T12:17:42.531Z,98394.47
2022-12-13T12:22:18.487Z,98386.09
2022-12-13T12:26:35.648Z,98381.13
2022-12-13T12:30:44.156Z,98382.16
2022-12-13T12:34:45.962Z,98384.75
2022-12-13T12:39:06.148Z,98392.50
2022-12-13T12:43:20.234Z,98390.06
2022-12-13T12:52:16.024Z,98380.09
2022-12-13T12:56:17.312Z,98376.84
2022-12-13T13:18:47.110Z,98362.31
2022-12-13T13:23:03.959Z,98366.72
2022-12-13T13:27:10.556Z,98371.09
2022-12-13T13:31:12.572Z,98377.97
2022-12-13T13:35:37.753Z,98377.94
2022-12-13T13:39:54.232Z,98366.09
2022-12-13T13:43:55.531Z,98361.00
2022-12-13T13:48:14.919Z,98349.84
2022-12-13T13:52:26.389Z,98348.94
2022-12-13T13:56:40.207Z,98348.88
2022-12-13T14:00:54.264Z,98339.56
2022-12-13T14:05:14.417Z,98341.25
2022-12-13T14:09:33.951Z,98340.28
2022-12-13T14:13:45.109Z,98333.31
2022-12-13T14:18:24.143Z,98329.78
2022-12-13T14:27:20.149Z,98306.41
2022-12-13T14:31:41.618Z,98314.75
2022-12-13T14:35:50.174Z,98312.13
2022-12-13T14:40:23.311Z,98304.34
2022-12-13T14:44:27.929Z,98289.84
2022-12-13T14:48:33.743Z,98278.63
2022-12-13T14:52:40.088Z,98280.16
2022-12-13T14:56:55.796Z,98286.06
2022-12-13T15:00:59.963Z,98278.31
2022-12-13T15:05:05.644Z,98287.63
2022-12-13T15:09:14.733Z,98284.94
2022-12-13T15:13:29.017Z,98275.47
2022-12-13T15:17:37.127Z,98280.41
2022-12-13T15:21:38.506Z,98284.53
2022-12-13T15:25:40.166Z,98283.56
2022-12-13T15:29:42.035Z,98277.50
2022-12-13T15:33:48.527Z,98285.91
2022-12-13T15:37:50.363Z,98291.75
2022-12-13T15:41:54.380Z,98289.16
2022-12-13T15:45:55.761Z,98287.38
2022-12-13T15:49:59.426Z,98284.69
2022-12-13T15:54:22.738Z,98286.25
2022-12-13T15:58:34.382Z,98296.34
2022-12-13T16:02:36.455Z,98296.28
2022-12-13T16:06:38.177Z,98297.81
2022-12-13T16:10:39.495Z,98301.06
2022-12-13T16:14:48.969Z,98301.84
2022-12-13T16:18:52.928Z,98289.72
2022-12-13T16:22:54.254Z,98291.38
2022-12-13T16:27:01.358Z,98293.75
2022-12-13T16:31:13.086Z,98286.88
2022-12-13T16:35:14.404Z,98296.91
2022-12-13T16:39:15.730Z,98287.47
2022-12-13T16:43:18.490Z,98279.00
2022-12-13T16:47:27.522Z,98274.75
2022-12-13T16:51:38.997Z,98261.13
2022-12-13T16:55:43.047Z,98256.88
2022-12-13T16:59:44.318Z,98259.41
2022-12-13T17:03:45.848Z,98241.53
2022-12-13T17:07:47.271Z,98244.94
2022-12-13T17:11:49.525Z,98231.34
2022-12-13T17:15:59.372Z,98246.56
2022-12-13T17:20:04.070Z,98248.13
2022-12-13T17:24:08.209Z,98246.41
2022-12-13T17:28:10.623Z,98233.66
2022-12-13T17:32:11.935Z,98220.13
2022-12-13T17:36:14.127Z,98210.81
2022-12-13T17:40:16.756Z,98216.75
2022-12-13T17:44:18.128Z,98206.53
2022-12-13T17:48:19.588Z,98193.81
2022-12-13T17:52:21.273Z,98205.69
2022-12-13T17:56:22.532Z,98202.25
2022-12-13T18:00:23.839Z,98198.00
2022-12-13T18:04:25.200Z,98198.75
2022-12-13T18:08:27.159Z,98196.22
2022-12-13T18:12:28.416Z,98194.53
2022-12-13T18:16:36.239Z,98185.16
2022-12-13T18:20:38.620Z,98194.41
2022-12-13T18:24:44.994Z,98205.44
2022-12-13T18:28:46.440Z,98207.94
2022-12-13T18:32:47.781Z,98231.66
2022-12-13T18:36:49.055Z,98245.25
2022-12-13T18:40:50.488Z,98239.31
2022-12-13T18:44:54.632Z,98203.78
2022-12-13T18:48:57.991Z,98185.09
2022-12-13T18:53:01.198Z,98201.97
2022-12-13T18:57:02.794Z,98189.22
2022-12-13T19:01:04.940Z,98191.72
2022-12-13T19:05:06.389Z,98180.75
2022-12-13T19:09:08.400Z,98175.66
2022-12-13T19:13:11.089Z,98175.66
2022-12-13T19:17:12.447Z,98191.81
2022-12-13T19:21:15.230Z,98194.34
2022-12-13T19:25:17.215Z,98157.91
2022-12-13T19:29:18.916Z,98168.94
2022-12-13T19:33:20.323Z,98166.41
2022-12-13T19:37:22.002Z,98160.50
2022-12-13T19:41:24.192Z,98151.13
2022-12-13T19:45:25.886Z,98145.22
2022-12-13T19:49:27.204Z,98139.28
2022-12-13T19:53:29.675Z,98141.03
2022-12-13T19:57:34.281Z,98152.06
2022-12-13T20:01:36.443Z,98138.56
2022-12-13T20:05:38.417Z,98146.19
2022-12-13T20:09:39.850Z,98133.47
2022-12-13T20:13:41.266Z,98117.31
2022-12-13T20:17:42.724Z,98110.56
2022-12-13T20:21:46.119Z,98104.69
2022-12-13T20:25:48.771Z,98100.41
2022-12-13T20:29:50.313Z,98086.84
2022-12-13T20:33:58.627Z,98093.63
2022-12-13T20:37:59.903Z,98089.34
2022-12-13T20:42:01.744Z,98077.47
2022-12-13T20:46:10.408Z,98070.66
2022-12-13T20:50:12.152Z,98079.13
2022-12-13T20:54:13.668Z,98077.47
2022-12-13T20:58:15.050Z,98086.78
2022-12-13T21:02:16.426Z,98089.34
2022-12-13T21:06:18.591Z,98078.31
2022-12-13T21:10:19.832Z,98062.22
2022-12-13T21:14:26.547Z,98067.34
2022-12-13T21:18:27.779Z,98057.97
2022-12-13T21:22:29.511Z,98051.22
2022-12-13T21:26:35.308Z,98035.97
2022-12-13T21:30:37.511Z,98020.75
2022-12-13T21:34:39.757Z,98023.31
2022-12-13T21:38:41.950Z,98029.25
2022-12-13T21:42:43.344Z,98012.28
2022-12-13T21:47:11.227Z,98010.53
2022-12-13T21:51:07.259Z,98023.22
2022-12-13T21:55:37.753Z,98010.53
2022-12-13T21:59:31.878Z,98018.19
2022-12-13T22:03:33.280Z,98013.09
2022-12-13T22:07:34.619Z,98009.72
2022-12-13T22:11:36.494Z,98019.13
2022-12-13T22:15:37.815Z,98030.88
2022-12-13T22:19:39.553Z,98019.09
2022-12-13T22:23:40.855Z,97998.78
2022-12-13T22:27:42.232Z,97977.53
2022-12-13T22:31:43.603Z,97990.28
2022-12-13T22:35:50.241Z,97986.91
2022-12-13T22:39:51.609Z,97977.53
2022-12-13T22:43:52.925Z,97969.13
2022-12-13T22:47:54.533Z,97962.28
2022-12-13T22:51:58.860Z,97963.09
2022-12-13T22:56:08.519Z,97969.06
2022-12-13T23:00:19.092Z,97980.09
2022-12-13T23:04:20.923Z,97979.22
2022-12-13T23:12:58.888Z,97974.25
2022-12-13T23:17:08.847Z,97968.34
2022-12-13T23:21:11.186Z,97958.19
2022-12-13T23:25:15.076Z,97967.47
2022-12-13T23:33:36.060Z,97973.47
2022-12-13T23:37:37.613Z,97952.31
2022-12-13T23:41:39.351Z,97948.13
2022-12-13T23:45:40.702Z,97944.75
2022-12-13T23:49:42.095Z,97948.16
2022-12-13T23:53:43.454Z,97957.50
2022-12-13T23:57:44.831Z,97949.88
